createdAt,value
2024-01-08T00:00:11.216Z,82.42
2024-01-08T00:01:15.684Z,82.99
2024-01-08T00:02:17.669Z,82.56
2024-01-08T00:03:19.509Z,82.78
2024-01-08T00:04:21.341Z,82.72
2024-01-08T00:05:23.810Z,82.82
2024-01-08T00:06:25.764Z,82.70
2024-01-08T00:07:27.604Z,81.89
2024-01-08T00:08:29.435Z,81.88
2024-01-08T00:09:32.246Z,82.13
2024-01-08T00:10:34.708Z,82.26
2024-01-08T00:11:36.687Z,81.58
2024-01-08T00:12:38.458Z,81.63
2024-01-08T00:13:40.219Z,82.01
2024-01-08T00:14:42.052Z,81.73
2024-01-08T00:15:43.841Z,81.61
2024-01-08T00:16:45.612Z,81.55
2024-01-08T00:17:47.524Z,81.25
2024-01-08T00:18:49.353Z,81.50
2024-01-08T00:19:51.286Z,81.42
2024-01-08T00:20:53.029Z,81.78
2024-01-08T00:21:54.881Z,81.94
2024-01-08T00:22:56.853Z,81.01
2024-01-08T00:23:58.966Z,81.79
2024-01-08T00:25:01.526Z,81.95
2024-01-08T00:26:03.442Z,81.69
2024-01-08T00:27:05.378Z,81.48
2024-01-08T00:28:07.227Z,81.60
2024-01-08T00:29:09.092Z,80.47
2024-01-08T00:30:11.218Z,80.59
2024-01-08T00:31:12.936Z,81.11
2024-01-08T00:32:14.779Z,81.25
2024-01-08T00:33:16.728Z,81.60
2024-01-08T00:34:18.680Z,81.41
2024-01-08T00:35:20.485Z,81.31
2024-01-08T00:36:23.721Z,81.27
2024-01-08T00:37:25.555Z,80.81
2024-01-08T00:38:27.409Z,81.35
2024-01-08T00:39:29.375Z,81.18
2024-01-08T00:40:31.166Z,81.60
2024-01-08T00:41:33.572Z,81.19
2024-01-08T00:42:35.747Z,80.45
2024-01-08T00:43:37.510Z,80.90
2024-01-08T00:44:39.403Z,80.86
2024-01-08T00:45:41.745Z,81.19
2024-01-08T00:46:43.531Z,81.63
2024-01-08T00:47:45.332Z,81.59
2024-01-08T00:48:47.194Z,81.14
2024-01-08T00:49:49.151Z,81.52
2024-01-08T00:50:52.825Z,81.63
2024-01-08T00:51:54.557Z,81.72
2024-01-08T00:52:56.435Z,81.55
2024-01-08T00:53:58.157Z,80.77
2024-01-08T00:55:06.600Z,81.62
2024-01-08T00:56:08.741Z,81.60
2024-01-08T00:57:10.569Z,81.77
2024-01-08T00:58:12.522Z,81.96
2024-01-08T00:59:14.410Z,82.49
2024-01-08T01:00:16.826Z,82.52
2024-01-08T01:01:18.623Z,82.07
2024-01-08T01:02:20.539Z,82.30
2024-01-08T01:03:22.399Z,82.37
2024-01-08T01:04:24.773Z,82.41
2024-01-08T01:05:26.871Z,82.35
2024-01-08T01:06:28.910Z,82.12
2024-01-08T01:07:33.031Z,81.96
2024-01-08T01:08:35.389Z,81.99
2024-01-08T01:09:37.151Z,81.47
2024-01-08T01:10:38.912Z,81.53
2024-01-08T01:11:40.695Z,81.02
2024-01-08T01:12:42.497Z,81.11
2024-01-08T01:13:44.322Z,81.11
2024-01-08T01:14:46.423Z,81.45
2024-01-08T01:15:48.126Z,80.99
2024-01-08T01:16:50.258Z,80.60
2024-01-08T01:17:52.230Z,80.98
2024-01-08T01:18:54.259Z,81.03
2024-01-08T01:19:56.152Z,81.09
2024-01-08T01:20:57.850Z,81.27
2024-01-08T01:22:00.072Z,80.71
2024-01-08T01:23:02.482Z,80.86
2024-01-08T01:24:06.120Z,80.87
2024-01-08T01:25:08.189Z,81.14
2024-01-08T01:26:09.945Z,81.00
2024-01-08T01:27:11.812Z,80.32
2024-01-08T01:28:13.604Z,80.27
2024-01-08T01:29:15.448Z,80.36
2024-01-08T01:30:17.361Z,79.76
2024-01-08T01:31:19.207Z,80.07
2024-01-08T01:32:21.593Z,79.97
2024-01-08T01:33:23.442Z,80.04
2024-01-08T01:34:25.460Z,80.01
2024-01-08T01:35:27.384Z,79.95
2024-01-08T01:36:29.245Z,80.30
2024-01-08T01:37:31.409Z,80.41
2024-01-08T01:38:33.406Z,80.03
2024-01-08T01:39:35.253Z,80.08
2024-01-08T01:40:37.080Z,79.96
2024-01-08T01:41:38.996Z,80.29
2024-01-08T01:42:41.075Z,80.21
2024-01-08T01:43:42.830Z,80.62
2024-01-08T01:44:44.549Z,80.71
2024-01-08T01:45:46.267Z,80.70
2024-01-08T01:46:49.816Z,80.18
2024-01-08T01:48:01.722Z,80.13
2024-01-08T01:49:04.902Z,80.16
2024-01-08T01:50:09.422Z,80.45
2024-01-08T01:51:11.466Z,80.23
2024-01-08T01:52:13.216Z,79.85
2024-01-08T01:53:15.001Z,80.08
2024-01-08T01:54:18.310Z,80.08
2024-01-08T01:55:20.054Z,79.70
2024-01-08T01:56:22.313Z,79.82
2024-01-08T01:57:24.195Z,79.62
2024-01-08T01:58:26.060Z,79.44
2024-01-08T01:59:31.665Z,79.56
2024-01-08T02:00:34.197Z,79.72
2024-01-08T02:01:36.998Z,79.73
2024-01-08T02:02:39.206Z,79.99
2024-01-08T02:03:42.076Z,79.76
2024-01-08T02:04:44.852Z,79.91
2024-01-08T02:05:47.412Z,80.50
2024-01-08T02:06:49.784Z,80.75
2024-01-08T02:07:51.868Z,80.73
2024-01-08T02:08:54.582Z,80.58
2024-01-08T02:09:56.838Z,80.44
2024-01-08T02:10:59.468Z,80.03
2024-01-08T02:12:01.317Z,79.97
2024-01-08T02:13:04.669Z,80.00
2024-01-08T02:14:06.547Z,79.73
2024-01-08T02:15:08.658Z,80.12
2024-01-08T02:16:10.579Z,80.31
2024-01-08T02:17:12.509Z,80.26
2024-01-08T02:18:14.392Z,80.60
2024-01-08T02:19:16.220Z,80.35
2024-01-08T02:20:18.106Z,80.43
2024-01-08T02:21:19.869Z,80.51
2024-01-08T02:22:21.751Z,80.74
2024-01-08T02:23:23.516Z,80.51
2024-01-08T02:24:29.115Z,80.32
2024-01-08T02:25:32.600Z,80.66
2024-01-08T02:26:35.793Z,80.83
2024-01-08T02:27:38.335Z,81.04
2024-01-08T02:28:39.992Z,80.55
2024-01-08T02:29:41.800Z,80.79
2024-01-08T02:30:43.595Z,80.28
2024-01-08T02:31:45.468Z,80.51
2024-01-08T02:32:47.587Z,80.97
2024-01-08T02:33:49.779Z,81.08
2024-01-08T02:34:52.085Z,80.90
2024-01-08T02:35:54.997Z,80.78
2024-01-08T02:36:57.089Z,81.01
2024-01-08T02:37:58.903Z,81.24
2024-01-08T02:39:00.741Z,81.37
2024-01-08T02:40:03.061Z,81.39
2024-01-08T02:41:05.059Z,81.24
2024-01-08T02:42:06.929Z,81.03
2024-01-08T02:43:08.751Z,81.33
2024-01-08T02:44:10.558Z,81.02
2024-01-08T02:45:12.300Z,80.50
2024-01-08T02:46:14.002Z,80.50
2024-01-08T02:47:15.731Z,80.33
2024-01-08T02:48:17.834Z,79.94
2024-01-08T02:49:19.837Z,79.57
2024-01-08T02:50:21.723Z,79.57
2024-01-08T02:51:23.460Z,79.55
2024-01-08T02:52:25.280Z,79.31
2024-01-08T02:53:27.153Z,79.75
2024-01-08T02:54:28.998Z,79.82
2024-01-08T02:55:30.791Z,79.79
2024-01-08T02:56:33.033Z,80.21
2024-01-08T02:57:34.858Z,79.99
2024-01-08T02:58:36.941Z,80.03
2024-01-08T02:59:38.758Z,79.52
2024-01-08T03:00:40.695Z,79.85
2024-01-08T03:01:42.431Z,79.44
2024-01-08T03:02:44.229Z,79.77
2024-01-08T03:03:46.198Z,79.61
2024-01-08T03:04:48.485Z,79.67
2024-01-08T03:05:50.381Z,79.95
2024-01-08T03:06:52.284Z,79.96
2024-01-08T03:07:54.120Z,80.11
2024-01-08T03:08:57.220Z,79.73
2024-01-08T03:09:59.812Z,80.25
2024-01-08T03:11:01.566Z,80.08
2024-01-08T03:12:03.536Z,79.82
2024-01-08T03:13:05.346Z,79.99
2024-01-08T03:14:07.116Z,79.83
2024-01-08T03:15:09.047Z,79.77
2024-01-08T03:16:11.372Z,79.51
2024-01-08T03:17:13.185Z,79.59
2024-01-08T03:18:15.056Z,79.48
2024-01-08T03:19:16.905Z,79.76
2024-01-08T03:20:18.929Z,79.65
2024-01-08T03:21:20.736Z,79.65
2024-01-08T03:22:22.861Z,79.58
2024-01-08T03:23:25.182Z,79.38
2024-01-08T03:24:27.022Z,79.03
2024-01-08T03:25:28.807Z,79.30
2024-01-08T03:26:31.091Z,78.92
2024-01-08T03:27:33.460Z,79.03
2024-01-08T03:28:35.327Z,79.02
2024-01-08T03:29:37.543Z,78.74
2024-01-08T03:30:39.330Z,78.90
2024-01-08T03:31:44.835Z,79.01
2024-01-08T03:32:46.709Z,78.98
2024-01-08T03:33:49.741Z,79.34
2024-01-08T03:34:51.760Z,79.45
2024-01-08T03:35:54.915Z,79.42
2024-01-08T03:36:56.783Z,79.43
2024-01-08T03:37:58.673Z,79.00
2024-01-08T03:39:01.197Z,79.09
2024-01-08T03:40:04.796Z,78.65
2024-01-08T03:41:06.619Z,78.82
2024-01-08T03:42:08.532Z,78.52
2024-01-08T03:43:10.243Z,79.08
2024-01-08T03:44:12.310Z,79.03
2024-01-08T03:45:14.121Z,79.15
2024-01-08T03:46:15.861Z,79.15
2024-01-08T03:47:17.751Z,79.25
2024-01-08T03:48:19.746Z,79.18
2024-01-08T03:49:21.763Z,79.40
2024-01-08T03:50:23.728Z,79.56
2024-01-08T03:51:25.469Z,79.11
2024-01-08T03:52:27.253Z,79.46
2024-01-08T03:53:29.190Z,79.62
2024-01-08T03:54:31.344Z,79.41
2024-01-08T03:55:35.369Z,79.13
2024-01-08T03:56:37.334Z,79.08
2024-01-08T03:57:39.128Z,79.43
2024-01-08T03:58:40.839Z,79.34
2024-01-08T03:59:44.051Z,79.32
2024-01-08T04:00:45.781Z,79.00
2024-01-08T04:01:48.184Z,79.20
2024-01-08T04:02:50.208Z,79.22
2024-01-08T04:03:53.057Z,79.42
2024-01-08T04:04:55.003Z,79.17
2024-01-08T04:05:56.918Z,79.38
2024-01-08T04:06:58.920Z,79.42
2024-01-08T04:08:01.457Z,79.48
2024-01-08T04:09:03.260Z,79.57
2024-01-08T04:10:06.118Z,79.57
2024-01-08T04:11:08.033Z,79.16
2024-01-08T04:12:10.036Z,79.34
2024-01-08T04:13:12.417Z,78.89
2024-01-08T04:14:14.179Z,79.01
2024-01-08T04:15:16.133Z,79.17
2024-01-08T04:16:17.974Z,78.77
2024-01-08T04:17:19.833Z,78.90
2024-01-08T04:18:21.683Z,79.09
2024-01-08T04:19:24.604Z,78.92
2024-01-08T04:20:26.607Z,78.62
2024-01-08T04:21:28.759Z,78.42
2024-01-08T04:22:30.458Z,78.55
2024-01-08T04:23:32.363Z,78.67
2024-01-08T04:24:34.126Z,78.66
2024-01-08T04:25:35.865Z,79.09
2024-01-08T04:26:37.894Z,79.10
2024-01-08T04:27:39.797Z,79.21
2024-01-08T04:28:41.667Z,79.02
2024-01-08T04:29:43.422Z,78.62
2024-01-08T04:30:45.212Z,78.88
2024-01-08T04:31:46.926Z,78.95
2024-01-08T04:32:48.928Z,79.13
2024-01-08T04:33:51.079Z,78.89
2024-01-08T04:34:53.202Z,79.11
2024-01-08T04:35:55.180Z,79.27
2024-01-08T04:36:57.282Z,79.63
2024-01-08T04:38:02.153Z,79.36
2024-01-08T04:39:04.089Z,79.27
2024-01-08T04:40:06.162Z,79.38
2024-01-08T04:41:08.370Z,79.27
2024-01-08T04:42:10.085Z,79.29
2024-01-08T04:43:12.198Z,79.50
2024-01-08T04:44:14.110Z,79.68
2024-01-08T04:45:15.990Z,79.61
2024-01-08T04:46:17.860Z,79.36
2024-01-08T04:47:19.634Z,79.35
2024-01-08T04:48:22.732Z,79.22
2024-01-08T04:49:26.355Z,78.87
2024-01-08T04:50:28.240Z,79.52
2024-01-08T04:51:30.101Z,79.49
2024-01-08T04:52:31.959Z,79.70
2024-01-08T04:53:37.232Z,79.50
2024-01-08T04:54:39.026Z,79.62
2024-01-08T04:55:40.944Z,79.27
2024-01-08T04:56:42.810Z,79.36
2024-01-08T04:57:44.523Z,79.40
2024-01-08T04:58:46.264Z,79.46
2024-01-08T04:59:47.996Z,78.73
2024-01-08T05:00:49.854Z,78.95
2024-01-08T05:01:52.266Z,79.15
2024-01-08T05:02:54.267Z,79.27
2024-01-08T05:03:56.227Z,79.49
2024-01-08T05:04:58.237Z,79.61
2024-01-08T05:06:00.116Z,79.00
2024-01-08T05:07:02.060Z,79.40
2024-01-08T05:08:05.286Z,79.59
2024-01-08T05:09:07.315Z,79.00
2024-01-08T05:10:09.145Z,79.16
2024-01-08T05:11:11.515Z,78.97
2024-01-08T05:12:13.325Z,79.03
2024-01-08T05:13:15.142Z,79.06
2024-01-08T05:14:16.884Z,79.13
2024-01-08T05:15:18.692Z,79.07
2024-01-08T05:16:20.602Z,78.98
2024-01-08T05:17:24.987Z,79.08
2024-01-08T05:18:27.933Z,79.25
2024-01-08T05:19:29.938Z,79.35
2024-01-08T05:20:32.349Z,79.83
2024-01-08T05:21:34.197Z,79.41
2024-01-08T05:22:36.627Z,79.71
2024-01-08T05:23:38.420Z,79.51
2024-01-08T05:24:40.263Z,79.68
2024-01-08T05:25:42.034Z,79.10
2024-01-08T05:26:43.882Z,79.24
2024-01-08T05:27:45.811Z,78.79
2024-01-08T05:28:47.831Z,78.88
2024-01-08T05:29:49.717Z,78.88
2024-01-08T05:30:51.781Z,78.85
2024-01-08T05:31:54.270Z,78.97
2024-01-08T05:32:56.266Z,78.80
2024-01-08T05:33:58.144Z,79.32
2024-01-08T05:35:00.733Z,79.28
2024-01-08T05:36:02.690Z,79.39
2024-01-08T05:37:04.547Z,79.25
2024-01-08T05:38:06.799Z,79.07
2024-01-08T05:39:08.555Z,78.88
2024-01-08T05:40:10.523Z,79.09
2024-01-08T05:41:12.317Z,79.64
2024-01-08T05:42:14.132Z,79.43
2024-01-08T05:43:16.039Z,78.85
2024-01-08T05:44:18.620Z,78.58
2024-01-08T05:45:20.359Z,78.66
2024-01-08T05:46:22.189Z,78.94
2024-01-08T05:47:24.179Z,79.31
2024-01-08T05:48:26.137Z,79.33
2024-01-08T05:49:28.756Z,79.24
2024-01-08T05:50:30.683Z,79.10
2024-01-08T05:51:32.567Z,78.99
2024-01-08T05:52:34.432Z,79.03
2024-01-08T05:53:36.851Z,79.42
2024-01-08T05:54:38.707Z,79.33
2024-01-08T05:55:40.572Z,79.35
2024-01-08T05:56:42.370Z,79.58
2024-01-08T05:57:44.329Z,79.13
2024-01-08T05:58:46.215Z,79.18
2024-01-08T05:59:48.217Z,79.38
2024-01-08T06:00:50.317Z,79.07
2024-01-08T06:01:52.091Z,79.29
2024-01-08T06:02:53.848Z,79.01
2024-01-08T06:03:55.648Z,79.41
2024-01-08T06:04:57.988Z,79.12
2024-01-08T06:05:59.927Z,79.31
2024-01-08T06:07:01.681Z,79.22
2024-01-08T06:08:03.596Z,78.92
2024-01-08T06:09:05.440Z,79.13
2024-01-08T06:10:07.683Z,78.84
2024-01-08T06:11:09.478Z,78.92
2024-01-08T06:12:11.243Z,79.16
2024-01-08T06:13:12.940Z,79.43
2024-01-08T06:14:14.922Z,79.29
2024-01-08T06:15:16.948Z,79.35
2024-01-08T06:16:18.684Z,79.56
2024-01-08T06:17:20.543Z,79.62
2024-01-08T06:18:22.395Z,79.55
2024-01-08T06:19:24.212Z,79.01
2024-01-08T06:20:25.956Z,79.30
2024-01-08T06:21:27.807Z,79.59
2024-01-08T06:22:29.650Z,79.00
2024-01-08T06:23:31.698Z,78.92
2024-01-08T06:24:33.890Z,79.04
2024-01-08T06:25:35.589Z,79.08
2024-01-08T06:26:37.627Z,79.10
2024-01-08T06:27:39.392Z,79.03
2024-01-08T06:28:41.631Z,79.06
2024-01-08T06:29:43.448Z,79.04
2024-01-08T06:30:45.472Z,78.98
2024-01-08T06:31:47.610Z,78.77
2024-01-08T06:32:49.605Z,78.93
2024-01-08T06:33:51.582Z,79.11
2024-01-08T06:34:53.656Z,79.11
2024-01-08T06:35:55.394Z,79.10
2024-01-08T06:36:57.155Z,77.94
2024-01-08T06:37:59.255Z,77.69
2024-01-08T06:39:01.554Z,77.90
2024-01-08T06:40:03.848Z,78.41
2024-01-08T06:41:05.616Z,78.54
2024-01-08T06:42:07.456Z,78.69
2024-01-08T06:43:09.177Z,78.77
2024-01-08T06:44:10.980Z,78.97
2024-01-08T06:45:13.818Z,78.89
2024-01-08T06:46:17.210Z,79.15
2024-01-08T06:47:20.396Z,79.22
2024-01-08T06:48:22.361Z,79.35
2024-01-08T06:49:24.350Z,79.25
2024-01-08T06:50:26.772Z,79.45
2024-01-08T06:51:28.605Z,79.29
2024-01-08T06:52:30.340Z,79.54
2024-01-08T06:53:32.137Z,79.60
2024-01-08T06:54:34.277Z,79.89
2024-01-08T06:55:36.073Z,79.72
2024-01-08T06:56:37.989Z,79.66
2024-01-08T06:57:39.783Z,79.43
2024-01-08T06:58:42.214Z,79.65
2024-01-08T06:59:45.799Z,79.46
2024-01-08T07:00:49.380Z,79.69
2024-01-08T07:01:53.447Z,79.01
2024-01-08T07:02:55.886Z,79.28
2024-01-08T07:03:58.255Z,78.84
2024-01-08T07:05:00.355Z,78.67
2024-01-08T07:06:02.912Z,78.79
2024-01-08T07:07:05.729Z,79.02
2024-01-08T07:08:08.896Z,78.97
2024-01-08T07:09:10.709Z,78.96
2024-01-08T07:10:13.097Z,78.91
2024-01-08T07:11:24.643Z,78.30
2024-01-08T07:12:26.407Z,78.63
2024-01-08T07:13:31.023Z,78.66
2024-01-08T07:14:33.975Z,78.92
2024-01-08T07:15:36.932Z,79.06
2024-01-08T07:16:39.607Z,79.02
2024-01-08T07:17:41.779Z,79.17
2024-01-08T07:18:43.875Z,78.93
2024-01-08T07:19:45.649Z,79.22
2024-01-08T07:20:47.496Z,78.65
2024-01-08T07:21:49.294Z,78.42
2024-01-08T07:22:51.094Z,78.63
2024-01-08T07:23:53.027Z,78.51
2024-01-08T07:24:54.851Z,78.65
2024-01-08T07:25:56.754Z,78.32
2024-01-08T07:26:59.232Z,78.80
2024-01-08T07:28:01.608Z,78.69
2024-01-08T07:29:04.935Z,79.04
2024-01-08T07:30:11.114Z,79.16
2024-01-08T07:31:14.107Z,79.04
2024-01-08T07:32:16.063Z,78.90
2024-01-08T07:33:18.177Z,78.47
2024-01-08T07:34:20.763Z,78.45
2024-01-08T07:35:22.730Z,78.77
2024-01-08T07:36:24.569Z,78.80
2024-01-08T07:37:26.401Z,78.27
2024-01-08T07:38:28.864Z,78.50
2024-01-08T07:39:30.610Z,78.64
2024-01-08T07:40:32.487Z,78.52
2024-01-08T07:41:34.497Z,78.69
2024-01-08T07:42:36.959Z,78.47
2024-01-08T07:43:39.316Z,78.54
2024-01-08T07:44:41.093Z,78.77
2024-01-08T07:45:42.962Z,78.46
2024-01-08T07:46:44.675Z,78.44
2024-01-08T07:47:46.551Z,78.33
2024-01-08T07:48:52.264Z,78.40
2024-01-08T07:49:54.110Z,78.50
2024-01-08T07:50:56.861Z,78.70
2024-01-08T07:51:59.303Z,78.48
2024-01-08T07:53:01.257Z,78.46
2024-01-08T07:54:03.126Z,78.51
2024-01-08T07:55:05.582Z,78.02
2024-01-08T07:56:07.417Z,78.15
2024-01-08T07:57:11.819Z,78.45
2024-01-08T07:58:21.588Z,77.73
2024-01-08T07:59:26.708Z,77.72
2024-01-08T08:00:28.615Z,77.96
2024-01-08T08:01:30.426Z,77.69
2024-01-08T08:02:32.376Z,78.02
2024-01-08T08:03:34.666Z,77.96
2024-01-08T08:04:36.922Z,77.67
2024-01-08T08:05:41.029Z,77.66
2024-01-08T08:06:45.266Z,77.81
2024-01-08T08:07:48.775Z,78.22
2024-01-08T08:08:51.509Z,77.64
2024-01-08T08:09:53.425Z,78.09
2024-01-08T08:10:55.158Z,77.74
2024-01-08T08:11:56.931Z,77.36
2024-01-08T08:12:58.665Z,77.03
2024-01-08T08:14:00.566Z,77.02
2024-01-08T08:15:02.639Z,77.05
2024-01-08T08:16:04.712Z,77.12
2024-01-08T08:17:07.261Z,77.41
2024-01-08T08:18:09.832Z,78.06
2024-01-08T08:19:12.023Z,78.30
2024-01-08T08:20:14.039Z,78.15
2024-01-08T08:21:15.851Z,77.99
2024-01-08T08:22:17.570Z,77.61
2024-01-08T08:23:19.331Z,77.67
2024-01-08T08:24:21.343Z,77.71
2024-01-08T08:25:23.497Z,77.71
2024-01-08T08:26:26.160Z,77.75
2024-01-08T08:27:27.996Z,78.01
2024-01-08T08:28:30.494Z,78.08
2024-01-08T08:29:33.247Z,78.55
2024-01-08T08:30:35.206Z,78.31
2024-01-08T08:31:37.086Z,78.69
2024-01-08T08:32:41.158Z,78.51
2024-01-08T08:33:43.892Z,78.36
2024-01-08T08:34:46.021Z,78.32
2024-01-08T08:35:47.889Z,78.19
2024-01-08T08:36:49.703Z,78.15
2024-01-08T08:37:53.924Z,78.46
2024-01-08T08:38:57.808Z,78.46
2024-01-08T08:39:59.658Z,78.43
2024-01-08T08:41:01.772Z,78.05
2024-01-08T08:42:07.024Z,78.71
2024-01-08T08:43:08.894Z,78.58
2024-01-08T08:44:10.762Z,78.65
2024-01-08T08:45:12.555Z,78.77
2024-01-08T08:46:14.314Z,78.50
2024-01-08T08:47:16.147Z,78.62
2024-01-08T08:48:18.008Z,78.75
2024-01-08T08:49:19.913Z,78.58
2024-01-08T08:50:22.004Z,78.74
2024-01-08T08:51:23.794Z,78.73
2024-01-08T08:52:25.763Z,78.93
2024-01-08T08:53:27.596Z,78.67
2024-01-08T08:54:29.388Z,79.14
2024-01-08T08:55:31.860Z,78.91
2024-01-08T08:56:36.629Z,79.16
2024-01-08T08:57:38.800Z,79.30
2024-01-08T08:58:40.821Z,79.39
2024-01-08T08:59:44.865Z,79.12
2024-01-08T09:00:47.559Z,79.24
2024-01-08T09:01:51.061Z,78.74
2024-01-08T09:02:54.104Z,78.63
2024-01-08T09:03:56.128Z,78.78
2024-01-08T09:04:59.567Z,78.75
2024-01-08T09:06:01.419Z,78.84
2024-01-08T09:07:04.024Z,79.14
2024-01-08T09:08:06.395Z,79.19
2024-01-08T09:09:10.390Z,79.22
2024-01-08T09:10:12.189Z,78.61
2024-01-08T09:11:14.252Z,78.11
2024-01-08T09:12:16.303Z,78.22
2024-01-08T09:13:18.069Z,78.45
2024-01-08T09:14:19.833Z,78.50
2024-01-08T09:15:21.649Z,78.98
2024-01-08T09:16:24.571Z,78.45
2024-01-08T09:17:26.517Z,78.49
2024-01-08T09:18:28.763Z,78.67
2024-01-08T09:19:30.602Z,78.77
2024-01-08T09:20:32.403Z,78.54
2024-01-08T09:21:34.107Z,78.90
2024-01-08T09:22:35.989Z,79.07
2024-01-08T09:23:38.784Z,79.12
2024-01-08T09:24:40.518Z,79.17
2024-01-08T09:25:42.353Z,79.75
2024-01-08T09:26:44.430Z,79.28
2024-01-08T09:27:46.287Z,79.18
2024-01-08T09:28:48.131Z,78.68
2024-01-08T09:29:50.171Z,77.87
2024-01-08T09:30:53.602Z,78.30
2024-01-08T09:31:55.456Z,78.75
2024-01-08T09:32:57.335Z,78.66
2024-01-08T09:33:59.294Z,78.87
2024-01-08T09:35:01.462Z,79.09
2024-01-08T09:36:03.315Z,78.77
2024-01-08T09:37:05.373Z,78.57
2024-01-08T09:38:07.144Z,79.05
2024-01-08T09:39:09.851Z,78.86
2024-01-08T09:40:11.881Z,79.08
2024-01-08T09:41:22.947Z,79.23
2024-01-08T09:42:29.286Z,79.38
2024-01-08T09:43:33.303Z,79.37
2024-01-08T09:44:35.734Z,79.29
2024-01-08T09:45:45.180Z,78.94
2024-01-08T09:46:48.736Z,79.01
2024-01-08T09:47:51.288Z,78.83
2024-01-08T09:48:54.226Z,78.94
2024-01-08T09:49:56.732Z,78.95
2024-01-08T09:51:02.515Z,78.62
2024-01-08T09:52:05.182Z,78.63
2024-01-08T09:53:07.341Z,78.45
2024-01-08T09:54:09.741Z,78.29
2024-01-08T09:55:11.969Z,78.33
2024-01-08T09:56:15.231Z,78.33
2024-01-08T09:57:16.985Z,78.74
2024-01-08T09:58:19.092Z,78.60
2024-01-08T09:59:20.931Z,78.63
2024-01-08T10:00:22.986Z,78.10
2024-01-08T10:01:25.111Z,78.15
2024-01-08T10:02:27.145Z,78.20
2024-01-08T10:03:29.087Z,77.91
2024-01-08T10:04:31.870Z,78.37
2024-01-08T10:05:35.932Z,78.38
2024-01-08T10:06:39.647Z,78.86
2024-01-08T10:07:41.411Z,78.37
2024-01-08T10:08:43.326Z,78.26
2024-01-08T10:09:45.231Z,78.46
2024-01-08T10:10:47.216Z,78.64
2024-01-08T10:11:49.159Z,78.60
2024-01-08T10:12:52.877Z,78.68
2024-01-08T10:13:54.646Z,78.57
2024-01-08T10:14:56.979Z,78.48
2024-01-08T10:15:59.758Z,78.49
2024-01-08T10:17:03.159Z,78.29
2024-01-08T10:18:10.185Z,78.48
2024-01-08T10:19:14.837Z,77.88
2024-01-08T10:20:18.638Z,78.08
2024-01-08T10:21:21.147Z,78.18
2024-01-08T10:22:25.726Z,78.05
2024-01-08T10:23:27.781Z,77.98
2024-01-08T10:24:29.684Z,77.96
2024-01-08T10:25:31.736Z,78.22
2024-01-08T10:26:33.562Z,78.38
2024-01-08T10:27:35.432Z,78.09
2024-01-08T10:28:37.860Z,78.18
2024-01-08T10:29:40.702Z,78.39
2024-01-08T10:30:42.927Z,78.35
2024-01-08T10:31:45.789Z,77.89
2024-01-08T10:32:48.358Z,77.85
2024-01-08T10:33:50.274Z,77.44
2024-01-08T10:34:52.825Z,77.58
2024-01-08T10:35:54.809Z,78.11
2024-01-08T10:36:57.113Z,78.34
2024-01-08T10:38:01.777Z,78.15
2024-01-08T10:39:06.183Z,78.30
2024-01-08T10:40:10.022Z,78.38
2024-01-08T10:41:12.847Z,78.74
2024-01-08T10:42:15.305Z,78.71
2024-01-08T10:43:17.273Z,78.73
2024-01-08T10:44:19.149Z,78.77
2024-01-08T10:45:20.919Z,79.08
2024-01-08T10:46:26.068Z,78.89
2024-01-08T10:47:30.331Z,79.37
2024-01-08T10:48:51.813Z,78.90
2024-01-08T10:49:56.111Z,79.24
2024-01-08T10:50:58.900Z,79.55
2024-01-08T10:52:15.690Z,79.44
2024-01-08T10:53:38.075Z,79.40
2024-01-08T10:54:51.953Z,79.48
2024-01-08T10:55:54.059Z,79.66
2024-01-08T10:56:59.071Z,79.61
2024-01-08T10:58:10.206Z,79.78
2024-01-08T10:59:12.539Z,79.92
2024-01-08T11:00:14.929Z,80.17
2024-01-08T11:01:17.142Z,80.05
2024-01-08T11:02:19.192Z,79.92
2024-01-08T11:03:22.432Z,79.87
2024-01-08T11:04:24.201Z,79.94
2024-01-08T11:05:30.264Z,80.27
2024-01-08T11:06:34.588Z,80.23
2024-01-08T11:07:38.118Z,80.24
2024-01-08T11:08:41.252Z,80.56
2024-01-08T11:09:43.162Z,80.27
2024-01-08T11:10:44.953Z,80.48
2024-01-08T11:11:47.149Z,80.78
2024-01-08T11:12:58.298Z,80.51
2024-01-08T11:14:00.402Z,80.47
2024-01-08T11:15:05.494Z,80.66
2024-01-08T11:16:08.482Z,80.51
2024-01-08T11:17:13.444Z,80.28
2024-01-08T11:18:30.928Z,80.66
2024-01-08T11:19:40.486Z,80.74
2024-01-08T11:20:43.291Z,80.77
2024-01-08T11:21:46.170Z,81.03
2024-01-08T11:22:47.944Z,80.99
2024-01-08T11:23:49.854Z,80.74
2024-01-08T11:24:54.356Z,81.16
2024-01-08T11:25:57.558Z,81.40
2024-01-08T11:26:59.284Z,81.45
2024-01-08T11:28:01.007Z,81.28
2024-01-08T11:29:06.855Z,81.38
2024-01-08T11:30:08.930Z,81.60
2024-01-08T11:31:26.046Z,81.71
2024-01-08T11:32:49.724Z,81.60
2024-01-08T11:34:15.190Z,81.57
2024-01-08T11:35:20.891Z,81.58
2024-01-08T11:36:30.313Z,81.28
2024-01-08T11:37:36.744Z,80.72
2024-01-08T11:38:41.402Z,80.71
2024-01-08T11:39:43.906Z,80.67
2024-01-08T11:40:46.628Z,80.57
2024-01-08T11:41:49.205Z,80.56
2024-01-08T11:42:51.911Z,80.78
2024-01-08T11:43:54.400Z,80.96
2024-01-08T11:44:58.363Z,80.70
2024-01-08T11:46:00.847Z,80.81
2024-01-08T11:47:02.757Z,80.59
2024-01-08T11:48:04.864Z,80.90
2024-01-08T11:49:07.735Z,80.54
2024-01-08T11:50:10.068Z,80.57
2024-01-08T11:51:12.162Z,80.87
2024-01-08T11:52:14.477Z,80.79
2024-01-08T11:53:16.792Z,80.69
2024-01-08T11:54:19.884Z,80.68
2024-01-08T11:55:21.813Z,80.44
2024-01-08T11:56:23.755Z,80.60
2024-01-08T11:57:25.775Z,80.75
2024-01-08T11:58:27.623Z,80.84
2024-01-08T11:59:32.592Z,80.80
2024-01-08T12:00:35.515Z,80.79
2024-01-08T12:01:37.406Z,80.97
2024-01-08T12:02:41.059Z,80.96
2024-01-08T12:03:42.845Z,80.66
2024-01-08T12:04:55.061Z,80.98
2024-01-08T12:06:09.056Z,80.69
2024-01-08T12:07:12.772Z,80.48
2024-01-08T12:08:19.061Z,80.51
2024-01-08T12:09:20.875Z,80.48
2024-01-08T12:10:22.975Z,80.49
2024-01-08T12:11:26.942Z,80.50
2024-01-08T12:12:30.657Z,80.51
2024-01-08T12:13:32.378Z,80.08
2024-01-08T12:14:35.977Z,80.37
2024-01-08T12:15:39.936Z,80.29
2024-01-08T12:16:49.120Z,80.27
2024-01-08T12:17:54.597Z,80.08
2024-01-08T12:18:56.584Z,79.59
2024-01-08T12:19:59.303Z,79.70
2024-01-08T12:21:01.984Z,79.78
2024-01-08T12:22:06.722Z,79.86
2024-01-08T12:23:09.057Z,80.13
2024-01-08T12:24:11.215Z,79.63
2024-01-08T12:25:13.815Z,79.79
2024-01-08T12:26:19.708Z,79.58
2024-01-08T12:27:22.201Z,79.29
2024-01-08T12:28:27.470Z,79.38
2024-01-08T12:29:29.242Z,79.19
2024-01-08T12:30:32.462Z,79.08
2024-01-08T12:31:36.340Z,79.46
2024-01-08T12:32:39.717Z,79.41
2024-01-08T12:33:43.436Z,79.62
2024-01-08T12:34:45.472Z,79.52
2024-01-08T12:35:47.449Z,79.30
2024-01-08T12:36:49.214Z,79.36
2024-01-08T12:37:51.826Z,79.76
2024-01-08T12:38:54.443Z,79.61
2024-01-08T12:39:56.648Z,79.18
2024-01-08T12:40:58.487Z,79.10
2024-01-08T12:42:01.874Z,79.46
2024-01-08T12:43:03.726Z,79.70
2024-01-08T12:44:07.244Z,79.36
2024-01-08T12:45:11.248Z,79.62
2024-01-08T12:46:13.096Z,79.45
2024-01-08T12:47:15.131Z,79.21
2024-01-08T12:48:18.978Z,79.45
2024-01-08T12:49:21.607Z,79.24
2024-01-08T12:50:23.632Z,79.37
2024-01-08T12:51:25.486Z,79.75
2024-01-08T12:52:28.182Z,79.68
2024-01-08T12:53:30.063Z,79.79
2024-01-08T12:54:32.838Z,79.79
2024-01-08T12:55:34.617Z,79.62
2024-01-08T12:56:37.154Z,79.45
2024-01-08T12:57:39.162Z,79.87
2024-01-08T12:58:43.486Z,79.74
2024-01-08T12:59:55.461Z,79.69
2024-01-08T13:00:57.570Z,79.99
2024-01-08T13:01:59.505Z,79.86
2024-01-08T13:03:01.494Z,80.03
2024-01-08T13:04:04.265Z,80.02
2024-01-08T13:05:06.754Z,80.16
2024-01-08T13:06:08.938Z,80.32
2024-01-08T13:07:10.949Z,80.16
2024-01-08T13:08:12.858Z,80.28
2024-01-08T13:09:16.664Z,80.29
2024-01-08T13:10:18.409Z,79.78
2024-01-08T13:11:21.063Z,79.57
2024-01-08T13:12:23.035Z,79.76
2024-01-08T13:13:24.808Z,79.74
2024-01-08T13:14:26.551Z,79.66
2024-01-08T13:15:28.435Z,79.55
2024-01-08T13:16:30.139Z,79.47
2024-01-08T13:17:32.080Z,79.64
2024-01-08T13:18:34.167Z,79.90
2024-01-08T13:19:36.341Z,79.66
2024-01-08T13:20:38.341Z,79.54
2024-01-08T13:21:42.377Z,79.86
2024-01-08T13:22:44.180Z,79.70
2024-01-08T13:23:46.873Z,79.66
2024-01-08T13:24:48.632Z,79.19
2024-01-08T13:25:50.381Z,79.45
2024-01-08T13:26:52.400Z,79.03